Sharjah International Airport

Airport
ICAO code: 
OMSJ
IATA Code: 
SHJ
Summary
ICAO Region: 
MID
Location: 
Sharjah,
Serving: 
Sharjah
Elevation: 
111 ft
Coordinates: 
Aerial View: 
25° 19' 45.001" N, 55° 30' 58" E
Metar
Observation
OMSJ 181100Z 20014KT CAVOK 28/15 Q1014 BECMG 28013KT
Station
Sharjah International Airport
Date/Time
2022-01-18 11:00:00
Wind direction
200°
Wind speed
14 kts
Lowest cloud amount
clouds and visibility OK
Temperature
28°C
Dew point
15°C
Humidity
45%
QNH
1014 hPa
Weather condition
n/a

Description

International airport serving the emirate of Sharjah.

Climatology

Hot Desert Climate (Köppen climate classification BWh) - Hot desert climates are typically found in the subtropics where there is unbroken sunshine for the whole year due to the stable descending air and high pressure, little or no precipitation. Maximum temperatures of 40°C to 45°C are not uncommon, particularly during the warmer months of the year.

Runways

Designator Length Width Surface Rops
12/30 4060 45 ASP Yes/Yes
Airport map: 
Aerial View: 

Accidents and Serious Incidents at or in the vicinity of OMSJ

SKYbrary Partners:

Safety knowledge contributed by: